Time;durP1;ratioP1;P1;durP2;ratioP2;P2;SDS_P1;SDS_P2;PMS_P1;PMS_P2;Temp;Humidity;BMP_temperature;BMP_pressure;BME280_temperature;BME280_humidity;BME280_pressure;Samples;Min_cycle;Max_cycle;Signal;HPM_P1;HPM_P2
2022/09/10 04:02:26;;;;;;;2.73;1.50;;;16.00;99.90;;;;;;5084827;23;21019;-73
2022/09/10 04:04:53;;;;;;;2.70;1.80;;;16.00;99.90;;;;;;4969499;28;20559;-73
2022/09/10 04:07:20;;;;;;;4.20;1.37;;;16.00;99.90;;;;;;4970279;28;20474;-73
2022/09/10 04:09:46;;;;;;;2.50;1.67;;;16.00;99.90;;;;;;4970545;28;20491;-73
2022/09/10 04:12:15;;;;;;;3.03;1.50;;;16.00;99.90;;;;;;4970379;28;20535;-73
2022/09/10 04:14:44;;;;;;;2.27;1.40;;;16.00;99.90;;;;;;4969496;28;20527;-73
2022/09/10 04:17:11;;;;;;;1.60;1.50;;;16.00;99.90;;;;;;4969882;28;20833;-73
2022/09/10 04:19:39;;;;;;;1.80;1.40;;;16.10;99.90;;;;;;4969845;28;20475;-73
2022/09/10 04:22:06;;;;;;;6.53;1.90;;;16.00;99.90;;;;;;4970202;28;20489;-73
2022/09/10 04:24:33;;;;;;;1.60;1.47;;;16.10;99.90;;;;;;4969572;28;20511;-73
2022/09/10 04:27:00;;;;;;;1.77;1.50;;;16.10;99.90;;;;;;4970232;28;20479;-73
2022/09/10 04:29:27;;;;;;;4.57;1.67;;;16.10;99.90;;;;;;4970462;28;20468;-73
2022/09/10 04:31:55;;;;;;;2.60;1.60;;;16.10;99.90;;;;;;4969637;28;20512;-69
2022/09/10 04:34:22;;;;;;;2.57;1.70;;;16.00;99.90;;;;;;4969093;28;20460;-69
2022/09/10 04:36:52;;;;;;;2.53;2.00;;;16.00;99.90;;;;;;4969573;28;20492;-69
2022/09/10 04:39:19;;;;;;;8.10;1.50;;;16.10;99.90;;;;;;4970028;28;20460;-69
2022/09/10 04:41:46;;;;;;;2.33;1.50;;;16.10;99.90;;;;;;4969704;28;20480;-69
2022/09/10 04:44:12;;;;;;;2.43;1.47;;;16.00;99.90;;;;;;4968904;28;20468;-70
2022/09/10 04:46:40;;;;;;;3.97;1.67;;;16.00;99.90;;;;;;4969469;28;20464;-70
2022/09/10 04:49:07;;;;;;;2.43;1.50;;;16.00;99.90;;;;;;4969166;28;20563;-69
2022/09/10 04:51:34;;;;;;;3.57;1.67;;;16.00;99.90;;;;;;4970020;28;20504;-69
2022/09/10 04:54:02;;;;;;;2.90;1.70;;;16.00;99.90;;;;;;4968673;28;20456;-70
2022/09/10 04:56:29;;;;;;;3.37;1.53;;;16.00;99.90;;;;;;4969356;28;21266;-70
2022/09/10 04:58:56;;;;;;;2.77;1.50;;;16.00;99.90;;;;;;4969411;28;20460;-75
2022/09/10 05:01:23;;;;;;;2.80;1.77;;;16.00;99.90;;;;;;4969997;28;20484;-76
2022/09/10 05:03:50;;;;;;;5.37;1.60;;;16.00;99.90;;;;;;4970146;28;20464;-76
2022/09/10 05:06:17;;;;;;;3.40;1.80;;;16.10;99.90;;;;;;4969189;28;20457;-76
2022/09/10 05:08:43;;;;;;;3.10;1.70;;;16.10;99.90;;;;;;4970032;28;20464;-76
2022/09/10 05:11:12;;;;;;;5.33;1.70;;;16.10;99.90;;;;;;4968671;28;20511;-76
2022/09/10 05:13:38;;;;;;;3.00;1.50;;;16.00;99.90;;;;;;4968095;28;20845;-76
2022/09/10 05:16:06;;;;;;;3.43;1.63;;;16.00;99.90;;;;;;4967215;28;20465;-76
2022/09/10 05:18:33;;;;;;;3.20;2.43;;;16.10;99.90;;;;;;4968734;28;21015;-76
2022/09/10 05:21:00;;;;;;;3.87;1.70;;;16.10;99.90;;;;;;4968884;28;20472;-76
2022/09/10 05:23:29;;;;;;;3.00;1.50;;;16.10;99.90;;;;;;4968890;28;20591;-76
2022/09/10 05:25:56;;;;;;;5.50;2.00;;;16.10;99.90;;;;;;4968065;28;21254;-76
2022/09/10 05:28:24;;;;;;;3.90;1.60;;;16.10;99.90;;;;;;4969298;28;20531;-76
2022/09/10 05:30:54;;;;;;;2.10;1.70;;;16.10;99.90;;;;;;4968510;28;20485;-76
2022/09/10 05:33:21;;;;;;;3.43;1.80;;;16.10;99.90;;;;;;4968679;28;20878;-76
2022/09/10 05:35:50;;;;;;;3.37;2.07;;;16.10;99.90;;;;;;4968155;28;20456;-76
2022/09/10 05:38:17;;;;;;;2.23;1.80;;;16.10;99.90;;;;;;4968504;28;20519;-76
2022/09/10 05:40:44;;;;;;;5.73;2.30;;;16.20;99.90;;;;;;4968377;28;20481;-76
2022/09/10 05:43:11;;;;;;;4.40;2.50;;;16.10;99.90;;;;;;4968391;28;20468;-76
2022/09/10 05:45:39;;;;;;;3.07;2.27;;;16.00;99.90;;;;;;4968063;28;20519;-75
2022/09/10 05:48:06;;;;;;;3.90;2.10;;;16.00;99.90;;;;;;4968340;28;20461;-75
2022/09/10 05:50:33;;;;;;;6.00;2.93;;;16.00;99.90;;;;;;4967852;28;20480;-75
2022/09/10 05:53:00;;;;;;;3.83;2.10;;;16.00;99.90;;;;;;4968356;28;21057;-75
2022/09/10 05:55:29;;;;;;;3.27;1.70;;;16.00;99.90;;;;;;4968286;28;20476;-75
2022/09/10 05:57:57;;;;;;;2.47;2.20;;;16.00;99.90;;;;;;4967782;28;20469;-75
2022/09/10 06:00:24;;;;;;;3.67;2.00;;;16.00;99.90;;;;;;4967829;28;20468;-75
2022/09/10 06:02:52;;;;;;;4.60;1.93;;;16.00;99.90;;;;;;4967984;28;20695;-75
2022/09/10 06:05:20;;;;;;;2.63;1.70;;;16.10;99.90;;;;;;4967369;28;20600;-75
2022/09/10 06:07:46;;;;;;;4.70;1.30;;;16.10;99.90;;;;;;4968146;28;20476;-75
2022/09/10 06:10:14;;;;;;;6.10;2.00;;;16.10;99.90;;;;;;4967639;28;20465;-75
2022/09/10 06:12:45;;;;;;;3.30;1.50;;;16.10;99.90;;;;;;4967595;28;21015;-75
2022/09/10 06:15:12;;;;;;;2.77;1.80;;;16.10;99.90;;;;;;4967496;28;20444;-75
2022/09/10 06:17:39;;;;;;;2.40;1.67;;;16.10;99.90;;;;;;4967492;28;20460;-75
2022/09/10 06:20:08;;;;;;;4.60;1.67;;;16.10;99.90;;;;;;4967834;28;20457;-75
2022/09/10 06:22:35;;;;;;;3.80;1.70;;;16.10;99.90;;;;;;4967669;28;20477;-75
2022/09/10 06:25:02;;;;;;;3.40;1.77;;;16.10;99.90;;;;;;4967052;28;20941;-75
2022/09/10 06:27:29;;;;;;;2.73;1.70;;;16.10;99.90;;;;;;4967459;28;20461;-75
2022/09/10 06:29:56;;;;;;;3.10;1.60;;;16.10;99.90;;;;;;4967614;28;20979;-76
2022/09/10 06:32:23;;;;;;;5.67;1.80;;;16.10;99.90;;;;;;4967541;28;20535;-76
2022/09/10 06:34:49;;;;;;;4.80;1.70;;;16.10;99.90;;;;;;4967001;28;20460;-76
2022/09/10 06:37:17;;;;;;;4.00;1.60;;;16.10;99.90;;;;;;4967051;28;20463;-76
2022/09/10 06:39:44;;;;;;;3.07;2.20;;;16.10;99.90;;;;;;4967677;28;20465;-76
2022/09/10 06:42:11;;;;;;;3.30;2.07;;;16.20;99.90;;;;;;4967326;28;20832;-76
2022/09/10 06:44:38;;;;;;;2.90;1.80;;;16.20;99.90;;;;;;4966724;28;21234;-76
2022/09/10 06:47:05;;;;;;;3.60;2.00;;;16.10;99.90;;;;;;4967457;28;20555;-76
2022/09/10 06:49:32;;;;;;;2.53;1.67;;;16.10;99.90;;;;;;4967012;28;20798;-76
2022/09/10 06:52:00;;;;;;;3.67;1.83;;;16.10;99.90;;;;;;4966798;28;20500;-76
2022/09/10 06:54:28;;;;;;;5.57;1.50;;;16.10;99.90;;;;;;4966965;28;20464;-76
2022/09/10 06:56:55;;;;;;;4.03;1.70;;;16.10;99.90;;;;;;4967277;28;20475;-76
2022/09/10 06:59:23;;;;;;;1.93;1.40;;;16.10;99.90;;;;;;4967252;28;20464;-76
2022/09/10 07:01:50;;;;;;;2.90;1.50;;;16.10;99.90;;;;;;4966659;28;20993;-76
2022/09/10 07:04:17;;;;;;;3.73;1.70;;;16.10;99.90;;;;;;4966145;28;20471;-76
2022/09/10 07:06:44;;;;;;;4.70;1.80;;;16.00;99.90;;;;;;4966834;28;20457;-76
2022/09/10 07:09:11;;;;;;;4.43;2.13;;;16.00;99.90;;;;;;4966885;28;20576;-76
2022/09/10 07:11:39;;;;;;;3.20;1.73;;;16.10;99.90;;;;;;4966769;28;20867;-76
2022/09/10 07:14:06;;;;;;;2.53;1.60;;;16.10;99.90;;;;;;4966667;28;20475;-76
2022/09/10 07:16:34;;;;;;;3.77;1.90;;;16.10;99.90;;;;;;4966672;28;20475;-76
2022/09/10 07:19:01;;;;;;;6.50;2.50;;;16.10;99.90;;;;;;4966578;28;20965;-76
2022/09/10 07:21:29;;;;;;;2.87;1.80;;;16.10;99.90;;;;;;4966881;28;20488;-76
2022/09/10 07:23:56;;;;;;;3.33;1.80;;;16.10;99.90;;;;;;4966562;28;20452;-76
2022/09/10 07:26:23;;;;;;;3.50;1.83;;;16.20;99.90;;;;;;4966898;28;20468;-76
2022/09/10 07:28:51;;;;;;;2.37;1.97;;;16.20;99.90;;;;;;4966719;28;20460;-76
2022/09/10 07:31:20;;;;;;;4.43;2.07;;;16.20;99.90;;;;;;4966351;28;21004;-76
2022/09/10 07:33:47;;;;;;;2.93;1.93;;;16.20;99.90;;;;;;4966508;28;20961;-76
2022/09/10 07:36:15;;;;;;;3.17;1.73;;;16.20;99.90;;;;;;4965993;28;20468;-76
2022/09/10 07:38:42;;;;;;;4.07;2.07;;;16.10;99.90;;;;;;4966397;28;20464;-76
2022/09/10 07:41:11;;;;;;;3.07;1.90;;;16.20;99.90;;;;;;4966455;28;20484;-76
2022/09/10 07:43:38;;;;;;;3.30;2.30;;;16.20;99.90;;;;;;4966555;28;20456;-76
2022/09/10 07:46:08;;;;;;;3.40;1.93;;;16.20;99.90;;;;;;4966099;28;20515;-76
2022/09/10 07:48:36;;;;;;;7.03;1.80;;;16.20;99.90;;;;;;4966697;28;20464;-76
2022/09/10 07:51:04;;;;;;;5.00;2.13;;;16.10;99.90;;;;;;4966472;28;20476;-76
2022/09/10 07:53:31;;;;;;;4.87;2.10;;;16.20;99.90;;;;;;4966366;28;20857;-76
2022/09/10 07:56:01;;;;;;;2.87;1.87;;;16.20;99.90;;;;;;4966165;28;20465;-76
2022/09/10 07:58:30;;;;;;;2.80;1.93;;;16.30;99.90;;;;;;4966424;28;20468;-76
2022/09/10 08:00:58;;;;;;;7.00;1.70;;;16.30;99.90;;;;;;4966140;28;20551;-76
2022/09/10 08:03:26;;;;;;;5.17;1.93;;;16.40;99.90;;;;;;4966347;28;20464;-76
2022/09/10 08:05:53;;;;;;;5.20;2.20;;;16.40;99.90;;;;;;4966045;28;20472;-76
2022/09/10 08:08:20;;;;;;;5.97;1.70;;;16.40;99.90;;;;;;4966132;28;20563;-76
2022/09/10 08:10:48;;;;;;;2.30;1.63;;;16.30;99.90;;;;;;4966059;28;20488;-76
2022/09/10 08:13:15;;;;;;;2.17;1.67;;;16.30;99.90;;;;;;4965786;28;20584;-76
2022/09/10 08:15:43;;;;;;;4.43;1.70;;;16.30;99.90;;;;;;4965690;28;20468;-76
2022/09/10 08:18:11;;;;;;;3.00;2.00;;;16.30;99.90;;;;;;4965775;28;20500;-76
2022/09/10 08:20:39;;;;;;;2.37;1.90;;;16.30;99.90;;;;;;4965720;28;20480;-76
2022/09/10 08:23:06;;;;;;;3.70;1.80;;;16.30;99.90;;;;;;4966017;28;21142;-76
2022/09/10 08:25:36;;;;;;;2.93;2.17;;;16.40;99.90;;;;;;4965833;28;20456;-76
2022/09/10 08:28:02;;;;;;;3.47;1.90;;;16.50;99.90;;;;;;4965992;28;20839;-76
2022/09/10 08:30:30;;;;;;;3.47;2.10;;;16.60;99.90;;;;;;4968904;28;20468;-76
2022/09/10 08:32:57;;;;;;;2.83;2.07;;;16.60;99.90;;;;;;4969352;28;20507;-76
2022/09/10 08:35:24;;;;;;;5.80;2.10;;;16.50;99.90;;;;;;4969027;28;20463;-76
2022/09/10 08:37:52;;;;;;;3.07;1.67;;;16.50;99.90;;;;;;4969652;28;20500;-76
2022/09/10 08:40:20;;;;;;;4.03;1.97;;;16.40;99.90;;;;;;4969736;28;20852;-77
2022/09/10 08:42:49;;;;;;;6.10;1.80;;;16.50;99.90;;;;;;4969531;28;20469;-76
2022/09/10 08:45:19;;;;;;;2.70;1.60;;;16.50;99.90;;;;;;4968999;28;20460;-76
2022/09/10 08:47:57;;;;;;;2.80;1.63;;;16.60;99.90;;;;;;4969478;28;20555;-76
2022/09/10 08:50:32;;;;;;;3.30;1.80;;;16.60;99.90;;;;;;4969977;28;20455;-76
2022/09/10 08:53:13;;;;;;;6.50;1.77;;;16.60;99.90;;;;;;4970040;28;20488;-76
2022/09/10 08:55:42;;;;;;;2.17;1.20;;;16.70;99.90;;;;;;4968916;28;20471;-76
2022/09/10 08:58:14;;;;;;;2.10;1.20;;;16.70;99.90;;;;;;4969843;28;20548;-76
2022/09/10 09:00:43;;;;;;;1.97;1.53;;;16.80;99.90;;;;;;4969231;28;20499;-76
2022/09/10 09:03:16;;;;;;;3.87;1.50;;;16.80;99.90;;;;;;4969290;28;20446;-76
2022/09/10 09:05:46;;;;;;;4.33;1.30;;;16.80;99.90;;;;;;4969050;28;20467;-76
2022/09/10 09:08:17;;;;;;;3.37;1.27;;;16.80;99.90;;;;;;4969355;28;20471;-76
2022/09/10 09:10:49;;;;;;;2.23;1.10;;;16.80;99.90;;;;;;4969935;28;20492;-76
2022/09/10 09:13:41;;;;;;;1.63;1.23;;;16.90;99.90;;;;;;4970985;28;20487;-76
2022/09/10 09:16:28;;;;;;;2.10;1.50;;;16.90;99.90;;;;;;4971862;28;20471;-76
2022/09/10 09:19:04;;;;;;;2.20;1.00;;;16.90;99.90;;;;;;4976499;28;20469;-76
2022/09/10 09:21:40;;;;;;;2.17;1.10;;;16.90;99.90;;;;;;4978471;28;20489;-76
2022/09/10 09:24:18;;;;;;;2.77;1.10;;;16.90;99.90;;;;;;4976883;28;20506;-76
2022/09/10 09:26:46;;;;;;;2.97;1.40;;;16.90;99.90;;;;;;4977594;28;20445;-76
2022/09/10 09:29:17;;;;;;;2.87;1.40;;;16.90;99.90;;;;;;4977094;28;20465;-75
2022/09/10 09:31:48;;;;;;;3.10;1.57;;;17.00;99.90;;;;;;4969786;28;20495;-75
2022/09/10 09:34:19;;;;;;;3.40;1.40;;;17.00;99.90;;;;;;4968557;28;20500;-75
2022/09/10 09:36:49;;;;;;;2.27;1.40;;;17.10;99.90;;;;;;4968713;28;20832;-75
2022/09/10 09:39:23;;;;;;;3.23;1.50;;;17.20;99.90;;;;;;4969295;28;20811;-75
2022/09/10 09:41:57;;;;;;;3.90;1.40;;;17.20;99.90;;;;;;4967544;28;20488;-76
2022/09/10 09:44:29;;;;;;;3.83;1.63;;;17.10;99.90;;;;;;4968450;28;20468;-75
2022/09/10 09:46:56;;;;;;;5.77;1.73;;;17.20;99.90;;;;;;4968294;28;20472;-75
2022/09/10 09:49:25;;;;;;;3.70;1.50;;;17.20;99.90;;;;;;4968395;28;20460;-76
2022/09/10 09:51:53;;;;;;;4.90;1.70;;;17.30;99.90;;;;;;4968600;28;20537;-75
2022/09/10 09:54:25;;;;;;;4.50;1.60;;;17.30;99.90;;;;;;4967674;28;21044;-75
2022/09/10 09:56:57;;;;;;;7.17;1.87;;;17.30;99.90;;;;;;4968198;28;20464;-75
2022/09/10 09:59:29;;;;;;;3.60;1.67;;;17.30;99.90;;;;;;4967857;28;20875;-75
2022/09/10 10:02:00;;;;;;;5.83;1.83;;;17.30;99.90;;;;;;4967649;28;20489;-75
2022/09/10 10:04:30;;;;;;;6.23;1.60;;;17.40;99.90;;;;;;4967824;28;20467;-76
2022/09/10 10:06:58;;;;;;;6.70;1.80;;;17.40;99.90;;;;;;4967997;28;20464;-75
2022/09/10 10:09:29;;;;;;;4.80;1.40;;;17.30;99.90;;;;;;4968048;28;20465;-75
2022/09/10 10:11:58;;;;;;;2.67;1.50;;;17.30;99.90;;;;;;4967562;28;20480;-75
2022/09/10 10:14:40;;;;;;;4.50;1.57;;;17.20;99.90;;;;;;4967344;28;20531;-75
2022/09/10 10:17:29;;;;;;;8.87;1.93;;;17.20;99.90;;;;;;4965933;28;20471;-75
2022/09/10 10:19:58;;;;;;;3.40;1.67;;;17.20;99.90;;;;;;4967177;28;20483;-75
2022/09/10 10:22:28;;;;;;;3.90;2.10;;;17.20;99.90;;;;;;4968317;28;20472;-75
2022/09/10 10:24:57;;;;;;;3.93;1.57;;;17.10;99.90;;;;;;4967243;28;20452;-75
2022/09/10 10:27:31;;;;;;;2.90;1.50;;;17.10;99.90;;;;;;4967743;28;20826;-75
2022/09/10 10:30:01;;;;;;;5.80;1.63;;;17.20;99.90;;;;;;4967638;28;20511;-75
2022/09/10 10:32:43;;;;;;;3.80;1.33;;;17.20;99.90;;;;;;4967452;28;20503;-75
2022/09/10 10:35:31;;;;;;;4.27;1.30;;;17.20;99.90;;;;;;4967207;28;20945;-75
2022/09/10 10:38:24;;;;;;;6.13;1.50;;;17.10;99.90;;;;;;4967611;28;20488;-75
2022/09/10 10:41:16;;;;;;;5.80;1.73;;;17.00;99.90;;;;;;4967241;28;21070;-75
2022/09/10 10:43:52;;;;;;;2.60;1.60;;;17.10;99.90;;;;;;4967639;28;20493;-75
2022/09/10 10:46:21;;;;;;;2.47;1.70;;;17.10;99.90;;;;;;4966985;28;20518;-75
2022/09/10 10:49:01;;;;;;;5.10;1.50;;;17.10;99.90;;;;;;4967567;28;20475;-75
2022/09/10 10:51:37;;;;;;;4.57;1.97;;;17.10;99.90;;;;;;4966758;28;20476;-75
2022/09/10 10:54:19;;;;;;;6.80;1.60;;;17.10;99.90;;;;;;4966772;28;20862;-75
2022/09/10 10:56:58;;;;;;;6.87;1.70;;;17.20;99.90;;;;;;4966965;28;20470;-75
2022/09/10 10:59:43;;;;;;;5.77;1.90;;;17.40;99.90;;;;;;4966773;28;20914;-75
2022/09/10 11:02:15;;;;;;;3.73;1.27;;;17.50;99.90;;;;;;4966877;28;20528;-75
2022/09/10 11:04:47;;;;;;;5.43;1.47;;;17.60;99.90;;;;;;4966436;28;20936;-75
2022/09/10 11:07:20;;;;;;;4.60;1.50;;;17.70;99.90;;;;;;4966926;28;20464;-75
2022/09/10 11:09:52;;;;;;;4.23;1.50;;;17.70;99.90;;;;;;4966926;28;20961;-75
2022/09/10 11:12:28;;;;;;;3.60;1.30;;;17.70;99.90;;;;;;4966706;28;20507;-75
2022/09/10 11:14:58;;;;;;;2.90;1.20;;;17.70;99.90;;;;;;4966732;28;20479;-75
2022/09/10 11:17:29;;;;;;;4.90;1.63;;;17.70;99.90;;;;;;4966918;28;20464;-75
2022/09/10 11:20:03;;;;;;;2.33;1.30;;;17.60;99.90;;;;;;4966945;28;20440;-75
2022/09/10 11:22:35;;;;;;;4.57;1.43;;;17.50;99.90;;;;;;4966717;28;20490;-76
2022/09/10 11:25:11;;;;;;;3.80;1.40;;;17.50;99.90;;;;;;4966069;28;20448;-75
2022/09/10 11:27:45;;;;;;;3.10;1.60;;;17.50;99.90;;;;;;4966885;28;20455;-76
2022/09/10 11:30:15;;;;;;;6.43;1.70;;;17.50;99.90;;;;;;4967205;28;20444;-75
2022/09/10 11:32:46;;;;;;;4.17;1.60;;;17.60;99.90;;;;;;4966493;28;21251;-75
2022/09/10 11:35:21;;;;;;;4.07;1.27;;;17.70;99.90;;;;;;4966546;28;20468;-75
2022/09/10 11:38:06;;;;;;;3.00;1.27;;;17.70;99.90;;;;;;4966127;28;20448;-75
2022/09/10 11:40:39;;;;;;;5.20;1.43;;;17.90;99.90;;;;;;4966517;28;20484;-75
2022/09/10 11:43:12;;;;;;;7.17;1.80;;;17.90;99.90;;;;;;4966338;28;20948;-75
2022/09/10 11:45:47;;;;;;;5.43;1.37;;;18.00;99.90;;;;;;4965910;28;20540;-75
2022/09/10 11:48:22;;;;;;;3.80;1.73;;;18.00;99.90;;;;;;4966335;28;20455;-75
2022/09/10 11:50:53;;;;;;;3.57;1.50;;;18.00;99.90;;;;;;4966627;28;20476;-75
2022/09/10 11:53:23;;;;;;;8.83;1.80;;;18.20;99.90;;;;;;4966163;28;20880;-75
2022/09/10 11:56:24;;;;;;;3.30;1.30;;;18.30;99.90;;;;;;4965710;28;20961;-75
2022/09/10 11:59:06;;;;;;;2.90;1.00;;;18.50;99.90;;;;;;4966533;28;20878;-75
2022/09/10 12:02:04;;;;;;;4.07;1.30;;;18.60;99.90;;;;;;4966141;28;21020;-75
2022/09/10 12:04:46;;;;;;;2.10;1.10;;;18.60;99.90;;;;;;4967346;28;20445;-75
2022/09/10 12:07:26;;;;;;;7.30;1.30;;;18.60;99.90;;;;;;4970331;28;20475;-75
2022/09/10 12:10:07;;;;;;;3.90;1.20;;;18.60;99.90;;;;;;4970428;28;20526;-75
2022/09/10 12:12:39;;;;;;;2.87;1.10;;;18.60;99.90;;;;;;4970270;28;20493;-75
2022/09/10 12:15:15;;;;;;;2.50;1.20;;;18.60;99.90;;;;;;4969724;28;21014;-75
2022/09/10 12:17:44;;;;;;;6.03;1.70;;;18.70;99.90;;;;;;4970100;28;20468;-76
2022/09/10 12:20:17;;;;;;;1.80;1.10;;;18.70;99.90;;;;;;4969935;28;20937;-75
2022/09/10 12:22:56;;;;;;;4.70;1.80;;;18.70;99.90;;;;;;4970281;28;20452;-76
2022/09/10 12:25:27;;;;;;;1.80;1.10;;;18.80;99.90;;;;;;4969523;28;20479;-76
2022/09/10 12:27:58;;;;;;;5.47;1.30;;;18.80;99.90;;;;;;4970364;28;20481;-76
2022/09/10 12:31:09;;;;;;;3.63;1.20;;;18.90;99.90;;;;;;4969937;28;21164;-76
2022/09/10 12:34:11;;;;;;;3.97;1.60;;;19.00;99.90;;;;;;4970107;28;20543;-76
2022/09/10 12:37:25;;;;;;;6.40;1.60;;;19.10;99.90;;;;;;4970153;28;20471;-76
2022/09/10 12:40:30;;;;;;;3.90;1.00;;;19.10;99.90;;;;;;4890732;29;20843;-76
2022/09/10 12:43:00;;;;;;;2.57;1.20;;;19.20;99.90;;;;;;4890972;29;20495;-76
2022/09/10 12:46:02;;;;;;;3.17;1.30;;;19.10;99.90;;;;;;4955036;28;20555;-76
2022/09/10 12:48:31;;;;;;;2.60;1.17;;;19.00;99.90;;;;;;4969579;28;21034;-76
2022/09/10 12:50:59;;;;;;;2.20;1.10;;;18.90;99.90;;;;;;4969553;28;20487;-76
2022/09/10 12:53:50;;;;;;;3.50;1.50;;;18.90;99.90;;;;;;4969671;28;20543;-76
2022/09/10 12:56:45;;;;;;;2.40;1.30;;;18.90;99.90;;;;;;4969007;28;20448;-76
2022/09/10 12:59:26;;;;;;;2.20;1.27;;;18.90;99.90;;;;;;4969529;28;20564;-76
2022/09/10 13:01:54;;;;;;;2.43;1.10;;;18.80;99.90;;;;;;4969087;28;20495;-78
2022/09/10 13:04:28;;;;;;;2.97;1.33;;;18.80;99.90;;;;;;4968173;28;20464;-77
2022/09/10 13:06:58;;;;;;;3.83;1.27;;;18.60;99.90;;;;;;4968503;28;20436;-76
2022/09/10 13:09:28;;;;;;;2.63;1.40;;;18.50;99.90;;;;;;4968816;28;20465;-76
2022/09/10 13:11:58;;;;;;;8.37;1.57;;;18.40;99.90;;;;;;4969052;28;20472;-75
2022/09/10 13:14:29;;;;;;;3.00;1.20;;;18.40;99.90;;;;;;4968011;28;20499;-65
2022/09/10 13:16:56;;;;;;;2.97;1.40;;;18.50;99.90;;;;;;4968327;28;20919;-65
2022/09/10 13:19:50;;;;;;;5.63;1.60;;;18.90;99.90;;;;;;4969155;28;20228;-77
2022/09/10 13:22:32;;;;;;;4.37;1.80;;;19.00;99.90;;;;;;4969831;28;20487;-77
2022/09/10 13:25:02;;;;;;;3.63;1.20;;;19.00;99.90;;;;;;4969703;28;20898;-78
2022/09/10 13:27:40;;;;;;;2.63;1.30;;;19.10;99.90;;;;;;4974711;28;20449;-78
2022/09/10 13:30:14;;;;;;;7.00;1.40;;;19.10;99.90;;;;;;4973592;28;20463;-78
2022/09/10 13:32:45;;;;;;;2.60;1.40;;;19.00;99.90;;;;;;4976245;28;20502;-78
2022/09/10 13:35:53;;;;;;;3.63;1.33;;;19.00;99.90;;;;;;4974745;28;20501;-78
2022/09/10 13:39:00;;;;;;;5.33;1.30;;;19.10;99.90;;;;;;4965517;28;20472;-78
2022/09/10 13:42:04;;;;;;;4.07;1.30;;;19.10;99.90;;;;;;4975454;28;20475;-78
2022/09/10 13:44:44;;;;;;;6.63;1.30;;;19.00;99.90;;;;;;4957007;28;20467;-78
2022/09/10 13:47:15;;;;;;;5.47;1.30;;;19.10;99.90;;;;;;4976380;28;21289;-78
2022/09/10 13:49:51;;;;;;;4.03;1.30;;;19.20;99.90;;;;;;4974644;28;20460;-62
2022/09/10 13:52:22;;;;;;;2.97;1.30;;;19.20;99.90;;;;;;4968299;28;20480;-63
2022/09/10 13:54:54;;;;;;;2.13;1.10;;;19.20;99.90;;;;;;4967464;28;20504;-63
2022/09/10 13:57:25;;;;;;;2.33;1.30;;;19.30;99.90;;;;;;4968476;28;20441;-63
2022/09/10 13:59:58;;;;;;;4.50;1.40;;;19.30;99.90;;;;;;4968554;28;20455;-63
2022/09/10 14:02:40;;;;;;;5.30;1.20;;;19.20;99.90;;;;;;4967768;28;20511;-64
2022/09/10 14:05:27;;;;;;;4.50;1.27;;;19.30;99.90;;;;;;4967120;28;20788;-64
2022/09/10 14:07:55;;;;;;;3.40;1.40;;;19.20;99.90;;;;;;4967765;28;20464;-64
2022/09/10 14:10:25;;;;;;;2.97;1.13;;;19.20;99.90;;;;;;4967855;28;20514;-65
2022/09/10 14:12:53;;;;;;;1.50;1.00;;;19.20;99.90;;;;;;4967779;28;20464;-63
2022/09/10 14:15:35;;;;;;;2.80;1.30;;;19.20;99.90;;;;;;4967235;28;20496;-64
2022/09/10 14:18:02;;;;;;;5.60;1.10;;;19.10;99.90;;;;;;4967839;28;20567;-64
2022/09/10 14:20:31;;;;;;;2.40;1.23;;;19.00;99.90;;;;;;4968029;28;20468;-63
2022/09/10 14:23:00;;;;;;;4.33;1.50;;;18.70;99.90;;;;;;4967769;28;20968;-64
2022/09/10 14:25:33;;;;;;;5.57;1.60;;;18.50;99.90;;;;;;4967389;28;20560;-63
2022/09/10 14:28:24;;;;;;;3.93;1.40;;;18.30;99.90;;;;;;4967676;28;20460;-63
2022/09/10 14:30:53;;;;;;;2.30;1.23;;;18.20;99.90;;;;;;4967450;28;20481;-67
2022/09/10 14:33:25;;;;;;;3.30;1.10;;;18.10;99.90;;;;;;4967763;28;20499;-63
2022/09/10 14:35:52;;;;;;;5.60;1.70;;;18.10;99.90;;;;;;4966822;28;20965;-64
2022/09/10 14:38:24;;;;;;;3.87;1.63;;;18.10;99.90;;;;;;4967376;28;20456;-65
2022/09/10 14:40:56;;;;;;;3.30;1.70;;;18.00;99.90;;;;;;4967393;28;20985;-63
2022/09/10 14:43:29;;;;;;;6.00;2.17;;;18.00;99.90;;;;;;4967870;28;20457;-64
2022/09/10 14:45:56;;;;;;;2.37;1.40;;;18.00;99.90;;;;;;4966724;28;20469;-64
2022/09/10 14:48:35;;;;;;;5.17;1.80;;;18.00;99.90;;;;;;4967522;28;20856;-64
2022/09/10 14:51:13;;;;;;;4.77;2.30;;;18.00;99.90;;;;;;4967262;28;21004;-64
2022/09/10 14:53:41;;;;;;;2.77;1.77;;;18.00;99.90;;;;;;4967358;28;20460;-64
2022/09/10 14:56:20;;;;;;;4.30;1.67;;;18.10;99.90;;;;;;4966602;28;20471;-63
2022/09/10 14:58:47;;;;;;;2.10;1.20;;;18.00;99.90;;;;;;4967550;28;20449;-64
2022/09/10 15:01:14;;;;;;;2.80;1.47;;;18.00;99.90;;;;;;4966805;28;20488;-64
2022/09/10 15:03:41;;;;;;;5.90;1.40;;;18.00;99.90;;;;;;4967093;28;20534;-65
2022/09/10 15:06:09;;;;;;;4.10;1.53;;;18.00;99.90;;;;;;4966423;28;20846;-64
2022/09/10 15:08:36;;;;;;;4.40;1.40;;;18.00;99.90;;;;;;4967363;28;20479;-74
2022/09/10 15:11:05;;;;;;;6.37;1.90;;;18.00;99.90;;;;;;4967053;28;20481;-75
2022/09/10 15:13:37;;;;;;;3.07;1.50;;;18.00;99.90;;;;;;4965960;28;20514;-75
2022/09/10 15:16:04;;;;;;;2.37;1.30;;;17.90;99.90;;;;;;4965685;28;20465;-75
2022/09/10 15:18:31;;;;;;;3.50;1.40;;;17.90;99.90;;;;;;4966921;28;20464;-75
2022/09/10 15:21:00;;;;;;;4.27;1.90;;;17.90;99.90;;;;;;4966902;28;20484;-75
2022/09/10 15:23:27;;;;;;;4.83;1.30;;;17.90;99.90;;;;;;4967064;28;20526;-75
2022/09/10 15:25:57;;;;;;;6.27;1.77;;;17.80;99.90;;;;;;4966398;28;20484;-74
2022/09/10 15:28:24;;;;;;;2.73;1.50;;;17.70;99.90;;;;;;4966960;28;20467;-74
2022/09/10 15:30:52;;;;;;;2.37;1.30;;;17.70;99.90;;;;;;4966786;28;20480;-75
2022/09/10 15:33:19;;;;;;;3.43;1.40;;;17.60;99.90;;;;;;4966901;28;20585;-66
2022/09/10 15:35:46;;;;;;;5.70;2.00;;;17.60;99.90;;;;;;4966286;28;20505;-67
2022/09/10 15:38:13;;;;;;;2.60;1.70;;;17.70;99.90;;;;;;4966443;28;20519;-66
2022/09/10 15:40:40;;;;;;;4.60;1.63;;;17.70;99.90;;;;;;4966341;28;20483;-66
2022/09/10 15:43:07;;;;;;;3.00;1.67;;;17.70;99.90;;;;;;4966374;28;21339;-67
2022/09/10 15:45:35;;;;;;;8.30;2.70;;;17.60;99.90;;;;;;4966310;28;20461;-65
2022/09/10 15:48:05;;;;;;;5.93;2.20;;;17.50;99.90;;;;;;4967080;28;20535;-76
2022/09/10 15:50:32;;;;;;;3.33;2.07;;;17.50;99.90;;;;;;4967595;28;20535;-76
2022/09/10 15:52:59;;;;;;;1.90;1.60;;;17.30;99.90;;;;;;4966860;28;20949;-77
2022/09/10 15:55:27;;;;;;;5.40;1.87;;;17.20;99.90;;;;;;4966044;28;21022;-77
2022/09/10 15:57:54;;;;;;;2.30;1.90;;;17.10;99.90;;;;;;4967135;28;20575;-75
2022/09/10 16:00:21;;;;;;;3.43;1.53;;;17.00;99.90;;;;;;4966381;28;20464;-75
2022/09/10 16:02:50;;;;;;;5.90;1.90;;;16.80;99.90;;;;;;4966974;28;20449;-76
2022/09/10 16:05:19;;;;;;;2.83;1.63;;;16.60;99.90;;;;;;4966083;28;20468;-76
2022/09/10 16:07:48;;;;;;;3.17;2.27;;;16.50;99.90;;;;;;4966877;28;20460;-76
2022/09/10 16:10:15;;;;;;;4.10;1.73;;;16.40;99.90;;;;;;4966300;28;20464;-75
2022/09/10 16:12:42;;;;;;;5.40;1.97;;;16.40;99.90;;;;;;4967406;28;20464;-76
2022/09/10 16:15:10;;;;;;;2.63;2.37;;;16.30;99.90;;;;;;4965879;28;20502;-75
2022/09/10 16:17:37;;;;;;;2.87;2.00;;;16.30;99.90;;;;;;4966500;28;20471;-76
2022/09/10 16:20:04;;;;;;;4.10;2.40;;;16.30;99.90;;;;;;4966501;28;20460;-76
2022/09/10 16:22:32;;;;;;;4.40;2.70;;;16.30;99.90;;;;;;4966550;28;20488;-75
2022/09/10 16:24:59;;;;;;;5.50;2.37;;;16.30;99.90;;;;;;4965395;28;20942;-75
2022/09/10 16:27:26;;;;;;;7.30;2.93;;;16.40;99.90;;;;;;4966316;28;20464;-75
2022/09/10 16:29:53;;;;;;;4.93;2.07;;;16.40;99.90;;;;;;4966287;28;20464;-75
2022/09/10 16:32:20;;;;;;;7.13;2.70;;;16.30;99.90;;;;;;4966016;28;20485;-75
2022/09/10 16:34:47;;;;;;;3.27;2.30;;;16.40;99.90;;;;;;4963867;28;20596;-75
2022/09/10 16:37:13;;;;;;;7.80;2.93;;;16.40;99.90;;;;;;4964787;28;20471;-75
2022/09/10 16:39:41;;;;;;;5.13;2.80;;;16.40;99.90;;;;;;4965338;28;20469;-75
2022/09/10 16:42:08;;;;;;;6.10;2.40;;;16.40;99.90;;;;;;4965380;28;20489;-75
2022/09/10 16:44:35;;;;;;;3.93;2.50;;;16.40;99.90;;;;;;4964718;28;20467;-75
2022/09/10 16:47:02;;;;;;;3.60;2.30;;;16.50;99.90;;;;;;4964809;28;21465;-75
2022/09/10 16:49:29;;;;;;;7.60;3.00;;;16.50;99.90;;;;;;4965030;28;20464;-75
2022/09/10 16:51:56;;;;;;;8.70;2.47;;;16.40;99.90;;;;;;4968306;28;21545;-75
2022/09/10 16:54:25;;;;;;;3.40;2.00;;;16.50;99.90;;;;;;4967561;28;20945;-75
2022/09/10 16:56:53;;;;;;;4.67;2.77;;;16.50;99.90;;;;;;4968304;28;20464;-76
2022/09/10 16:59:22;;;;;;;7.93;2.83;;;16.50;99.90;;;;;;4967664;28;20464;-75
2022/09/10 17:01:50;;;;;;;5.73;2.73;;;16.60;99.90;;;;;;4967287;28;20496;-75
2022/09/10 17:04:19;;;;;;;5.40;2.63;;;16.60;99.90;;;;;;4968637;28;20474;-78
2022/09/10 17:06:46;;;;;;;7.80;2.40;;;16.60;99.90;;;;;;4969077;28;20492;-76
2022/09/10 17:09:13;;;;;;;9.80;2.53;;;16.60;99.90;;;;;;4968604;28;20868;-75
2022/09/10 17:11:40;;;;;;;6.07;2.60;;;16.60;99.90;;;;;;4968710;28;20488;-75